createdAt,value
2023-01-17T00:02:20.896Z,96432.78
2023-01-17T00:05:07.039Z,96427.25
2023-01-17T00:07:53.015Z,96413.69
2023-01-17T00:10:23.388Z,96405.25
2023-01-17T00:12:57.451Z,96414.41
2023-01-17T00:15:26.273Z,96410.09
2023-01-17T00:17:53.860Z,96420.47
2023-01-17T00:20:42.713Z,96415.91
2023-01-17T00:23:37.740Z,96422.91
2023-01-17T00:26:05.924Z,96423.59
2023-01-17T00:28:35.974Z,96412.13
2023-01-17T00:31:03.979Z,96421.66
2023-01-17T00:33:31.466Z,96419.37
2023-01-17T00:35:59.999Z,96421.09
2023-01-17T00:38:29.626Z,96411.78
2023-01-17T00:41:04.473Z,96408.56
2023-01-17T00:43:51.012Z,96406.97
2023-01-17T00:46:37.334Z,96412.16
2023-01-17T00:49:24.114Z,96385.59
2023-01-17T00:52:09.958Z,96391.47
2023-01-17T00:54:55.873Z,96394.22
2023-01-17T00:57:42.401Z,96396.34
2023-01-17T01:00:28.777Z,96401.16
2023-01-17T01:03:14.168Z,96407.50
2023-01-17T01:06:01.477Z,96397.31
2023-01-17T01:08:48.482Z,96391.31
2023-01-17T01:11:40.082Z,96401.63
2023-01-17T01:14:27.510Z,96416.69
2023-01-17T01:17:16.491Z,96426.44
2023-01-17T01:20:01.951Z,96412.44
2023-01-17T01:22:47.965Z,96427.72
2023-01-17T01:25:34.009Z,96429.38
2023-01-17T01:28:24.649Z,96426.44
2023-01-17T01:31:10.305Z,96424.34
2023-01-17T01:33:37.715Z,96426.31
2023-01-17T01:36:07.273Z,96431.00
2023-01-17T01:38:34.285Z,96432.94
2023-01-17T01:41:01.666Z,96441.44
2023-01-17T01:43:49.974Z,96432.84
2023-01-17T01:46:29.230Z,96427.84
2023-01-17T01:49:02.460Z,96408.84
2023-01-17T01:51:33.695Z,96401.38
2023-01-17T01:54:25.642Z,96390.25
2023-01-17T01:56:54.705Z,96391.41
2023-01-17T01:59:22.873Z,96379.25
2023-01-17T02:01:51.711Z,96381.69
2023-01-17T02:04:19.409Z,96384.28
2023-01-17T02:06:50.307Z,96383.31
2023-01-17T02:09:18.225Z,96390.78
2023-01-17T02:11:47.380Z,96390.28
2023-01-17T02:14:21.916Z,96398.38
2023-01-17T02:17:08.537Z,96391.91
2023-01-17T02:20:20.730Z,96390.69
2023-01-17T02:23:00.189Z,96383.59
2023-01-17T02:25:27.269Z,96372.22
2023-01-17T02:28:21.018Z,96380.31
2023-01-17T02:30:54.708Z,96373.87
2023-01-17T02:33:21.998Z,96377.56
2023-01-17T02:35:56.949Z,96376.88
2023-01-17T02:38:38.325Z,96365.59
2023-01-17T02:41:09.537Z,96364.94
2023-01-17T02:43:37.558Z,96359.41
2023-01-17T02:46:04.814Z,96348.41
2023-01-17T02:48:33.728Z,96342.59
2023-01-17T02:51:39.398Z,96333.69
2023-01-17T02:54:12.377Z,96332.22
2023-01-17T02:56:40.518Z,96327.69
2023-01-17T02:59:33.026Z,96324.78
2023-01-17T03:02:20.223Z,96320.88
2023-01-17T03:05:20.396Z,96315.38
2023-01-17T03:07:48.524Z,96309.41
2023-01-17T03:10:16.511Z,96305.47
2023-01-17T03:12:43.815Z,96309.06
2023-01-17T03:15:14.113Z,96304.19
2023-01-17T03:17:46.774Z,96297.22
2023-01-17T03:20:14.273Z,96298.69
2023-01-17T03:22:41.595Z,96297.06
2023-01-17T03:25:08.740Z,96293.19
2023-01-17T03:27:36.550Z,96285.56
2023-01-17T03:30:04.584Z,96277.62
2023-01-17T03:32:31.630Z,96268.69
2023-01-17T03:34:59.003Z,96272.91
2023-01-17T03:37:26.033Z,96263.31
2023-01-17T03:39:53.300Z,96271.44
2023-01-17T03:42:20.688Z,96280.81
2023-01-17T03:44:47.753Z,96266.72
2023-01-17T03:47:14.792Z,96268.03
2023-01-17T03:49:42.151Z,96264.44
2023-01-17T03:52:09.242Z,96261.06
2023-01-17T03:54:36.508Z,96264.63
2023-01-17T03:57:03.965Z,96266.72
2023-01-17T03:59:33.233Z,96270.62
2023-01-17T04:02:01.012Z,96274.69
2023-01-17T04:04:28.481Z,96265.94
2023-01-17T04:06:55.568Z,96266.41
2023-01-17T04:09:22.639Z,96263.16
2023-01-17T04:11:50.969Z,96267.69
2023-01-17T04:14:18.179Z,96263.50
2023-01-17T04:16:45.297Z,96263.31
2023-01-17T04:19:13.249Z,96266.91
2023-01-17T04:21:40.658Z,96270.62
2023-01-17T04:24:07.824Z,96276.28
2023-01-17T04:26:35.503Z,96279.69
2023-01-17T04:29:02.712Z,96274.63
2023-01-17T04:31:29.712Z,96273.19
2023-01-17T04:33:57.414Z,96269.78
2023-01-17T04:36:24.525Z,96281.78
2023-01-17T04:38:51.502Z,96274.78
2023-01-17T04:41:18.877Z,96274.13
2023-01-17T04:43:46.144Z,96268.63
2023-01-17T04:46:13.288Z,96262.94
2023-01-17T04:48:40.682Z,96261.94
2023-01-17T04:51:07.762Z,96274.28
2023-01-17T04:53:35.276Z,96286.12
2023-01-17T04:56:03.071Z,96283.03
2023-01-17T04:58:30.714Z,96285.34
2023-01-17T05:01:02.124Z,96279.00
2023-01-17T05:03:29.575Z,96279.84
2023-01-17T05:05:56.745Z,96279.03
2023-01-17T05:08:23.912Z,96283.22
2023-01-17T05:10:51.725Z,96278.84
2023-01-17T05:13:19.529Z,96284.19
2023-01-17T05:15:47.011Z,96279.81
2023-01-17T05:18:17.824Z,96282.22
2023-01-17T05:20:45.317Z,96281.72
2023-01-17T05:23:12.448Z,96281.37
2023-01-17T05:25:44.375Z,96285.31
2023-01-17T05:28:12.760Z,96291.94
2023-01-17T05:30:40.200Z,96283.19
2023-01-17T05:33:08.256Z,96282.53
2023-01-17T05:35:35.319Z,96290.16
2023-01-17T05:38:02.831Z,96292.94
2023-01-17T05:40:31.581Z,96298.13
2023-01-17T05:42:59.774Z,96297.28
2023-01-17T05:45:29.186Z,96304.44
2023-01-17T05:47:57.284Z,96313.66
2023-01-17T05:50:27.702Z,96326.19
2023-01-17T05:52:57.475Z,96326.00
2023-01-17T05:55:25.349Z,96334.59
2023-01-17T05:57:53.113Z,96339.00
2023-01-17T06:00:20.921Z,96344.84
2023-01-17T06:02:49.191Z,96339.00
2023-01-17T06:05:16.689Z,96348.09
2023-01-17T06:07:45.362Z,96345.19
2023-01-17T06:10:14.553Z,96345.84
2023-01-17T06:12:43.230Z,96349.75
2023-01-17T06:15:11.316Z,96354.47
2023-01-17T06:17:38.966Z,96355.91
2023-01-17T06:20:07.661Z,96356.09
2023-01-17T06:22:34.921Z,96357.22
2023-01-17T06:25:02.898Z,96356.75
2023-01-17T06:27:29.981Z,96357.22
2023-01-17T06:29:57.095Z,96358.19
2023-01-17T06:32:25.049Z,96365.66
2023-01-17T06:34:52.233Z,96379.09
2023-01-17T06:37:19.296Z,96376.06
2023-01-17T06:39:46.728Z,96389.97
2023-01-17T06:42:13.797Z,96386.59
2023-01-17T06:44:40.979Z,96393.72
2023-01-17T06:47:08.323Z,96391.78
2023-01-17T06:49:35.453Z,96406.69
2023-01-17T06:52:02.569Z,96405.72
2023-01-17T06:54:30.066Z,96412.53
2023-01-17T06:56:57.181Z,96422.44
2023-01-17T06:59:25.249Z,96424.03
2023-01-17T07:01:52.708Z,96423.88
2023-01-17T07:04:20.018Z,96423.41
2023-01-17T07:06:47.082Z,96434.06
2023-01-17T07:09:14.809Z,96436.47
2023-01-17T07:11:41.937Z,96444.13
2023-01-17T07:14:15.377Z,96435.34
2023-01-17T07:16:45.989Z,96451.22
2023-01-17T07:19:13.826Z,96451.53
2023-01-17T07:21:40.955Z,96462.56
2023-01-17T07:24:09.272Z,96460.44
2023-01-17T07:26:40.252Z,96469.91
2023-01-17T07:29:07.318Z,96474.41
2023-01-17T07:31:36.715Z,96488.63
2023-01-17T07:34:03.909Z,96488.16
2023-01-17T07:36:31.060Z,96498.25
2023-01-17T07:38:58.401Z,96497.44
2023-01-17T07:41:25.739Z,96510.09
2023-01-17T07:43:54.323Z,96517.00
2023-01-17T07:46:23.764Z,96522.03
2023-01-17T07:48:51.047Z,96530.91
2023-01-17T07:51:18.263Z,96537.25
2023-01-17T07:53:45.840Z,96538.22
2023-01-17T07:56:12.890Z,96542.91
2023-01-17T07:58:39.975Z,96537.88
2023-01-17T08:01:09.517Z,96548.66
2023-01-17T08:03:40.041Z,96557.69
2023-01-17T08:06:16.242Z,96552.78
2023-01-17T08:08:44.296Z,96550.25
2023-01-17T08:11:11.320Z,96555.13
2023-01-17T08:13:38.283Z,96553.31
2023-01-17T08:16:06.341Z,96561.81
2023-01-17T08:18:33.464Z,96556.69
2023-01-17T08:21:00.590Z,96550.41
2023-01-17T08:23:28.333Z,96555.22
2023-01-17T08:26:00.587Z,96553.88
2023-01-17T08:28:27.893Z,96552.94
2023-01-17T08:30:54.917Z,96569.50
2023-01-17T08:33:21.908Z,96578.28
2023-01-17T08:35:53.736Z,96574.75
2023-01-17T08:38:23.803Z,96581.91
2023-01-17T08:40:51.191Z,96576.19
2023-01-17T08:43:19.177Z,96577.75
2023-01-17T08:45:48.269Z,96582.62
2023-01-17T08:48:16.634Z,96573.84
2023-01-17T08:50:43.649Z,96586.37
2023-01-17T08:53:10.963Z,96581.94
2023-01-17T08:55:40.945Z,96577.97
2023-01-17T08:58:08.511Z,96580.00
2023-01-17T09:00:37.293Z,96582.50
2023-01-17T09:03:10.416Z,96577.38
2023-01-17T09:05:37.689Z,96593.44
2023-01-17T09:08:05.676Z,96604.00
2023-01-17T09:10:33.627Z,96598.00
2023-01-17T09:13:00.653Z,96602.22
2023-01-17T09:15:28.124Z,96597.56
2023-01-17T09:17:56.590Z,96598.72
2023-01-17T09:20:24.683Z,96601.47
2023-01-17T09:22:52.316Z,96600.03
2023-01-17T09:25:19.634Z,96604.25
2023-01-17T09:27:47.044Z,96613.53
2023-01-17T09:30:14.715Z,96631.56
2023-01-17T09:32:41.691Z,96638.44
2023-01-17T09:35:09.674Z,96640.41
2023-01-17T09:37:37.182Z,96638.28
2023-01-17T09:40:04.659Z,96645.44
2023-01-17T09:42:37.138Z,96657.13
2023-01-17T09:45:05.615Z,96659.56
2023-01-17T09:47:42.691Z,96660.06
2023-01-17T09:50:25.222Z,96660.53
2023-01-17T09:53:00.647Z,96660.69
2023-01-17T09:55:35.619Z,96662.84
2023-01-17T09:58:21.927Z,96677.78
2023-01-17T10:00:56.180Z,96680.38
2023-01-17T10:03:42.029Z,96678.59
2023-01-17T10:06:49.511Z,96688.66
2023-01-17T10:09:53.727Z,96688.84
2023-01-17T10:12:31.769Z,96690.47
2023-01-17T10:15:17.910Z,96687.03
2023-01-17T10:18:06.165Z,96681.19
2023-01-17T10:20:45.750Z,96676.31
2023-01-17T10:23:41.649Z,96678.75
2023-01-17T10:26:15.621Z,96684.63
2023-01-17T10:28:51.668Z,96680.34
2023-01-17T10:31:18.968Z,96684.53
2023-01-17T10:33:57.619Z,96678.00
2023-01-17T10:36:32.563Z,96673.25
2023-01-17T10:39:25.949Z,96672.03
2023-01-17T10:41:59.634Z,96664.72
2023-01-17T10:44:35.567Z,96661.41
2023-01-17T10:47:08.643Z,96647.34
2023-01-17T10:49:39.088Z,96650.47
2023-01-17T10:52:13.348Z,96652.38
2023-01-17T10:55:05.112Z,96648.81
2023-01-17T10:57:39.397Z,96642.06
2023-01-17T11:00:45.574Z,96639.37
2023-01-17T11:03:16.030Z,96628.84
2023-01-17T11:05:43.917Z,96622.66
2023-01-17T11:08:13.586Z,96619.19
2023-01-17T11:10:43.798Z,96621.47
2023-01-17T11:13:30.716Z,96626.63
2023-01-17T11:16:03.638Z,96612.19
2023-01-17T11:18:34.533Z,96607.16
2023-01-17T11:21:17.444Z,96600.44
2023-01-17T11:23:50.055Z,96603.41
2023-01-17T11:26:29.713Z,96598.34
2023-01-17T11:29:39.940Z,96599.63
2023-01-17T11:32:22.152Z,96581.75
2023-01-17T11:35:42.016Z,96583.34
2023-01-17T11:38:20.382Z,96579.66
2023-01-17T11:40:49.366Z,96571.34
2023-01-17T11:43:27.011Z,96570.38
2023-01-17T11:46:14.217Z,96578.37
2023-01-17T11:48:41.561Z,96579.72
2023-01-17T11:51:19.464Z,96580.66
2023-01-17T11:53:49.930Z,96591.44
2023-01-17T11:56:28.046Z,96588.97
2023-01-17T11:59:26.961Z,96600.25
2023-01-17T12:02:17.944Z,96613.72
2023-01-17T12:04:45.202Z,96610.69
2023-01-17T12:07:41.347Z,96609.19
2023-01-17T12:10:26.025Z,96596.53
2023-01-17T12:13:15.171Z,96607.44
2023-01-17T12:15:46.077Z,96606.41
2023-01-17T12:18:13.574Z,96611.28
2023-01-17T12:20:48.081Z,96608.72
2023-01-17T12:23:56.925Z,96604.50
2023-01-17T12:26:43.481Z,96607.88
2023-01-17T12:29:31.358Z,96591.97
2023-01-17T12:32:50.738Z,96594.09
2023-01-17T12:35:20.205Z,96591.12
2023-01-17T12:38:00.389Z,96598.88
2023-01-17T12:40:37.717Z,96596.78
2023-01-17T12:43:08.172Z,96584.13
2023-01-17T12:45:39.134Z,96589.13
2023-01-17T12:48:11.244Z,96578.78
2023-01-17T12:51:05.422Z,96576.72
2023-01-17T12:53:42.552Z,96566.47
2023-01-17T12:56:19.254Z,96570.25
2023-01-17T12:58:50.542Z,96575.28
2023-01-17T13:01:29.526Z,96581.97
2023-01-17T13:04:00.381Z,96570.72
2023-01-17T13:06:51.629Z,96563.94
2023-01-17T13:09:22.492Z,96577.53
2023-01-17T13:12:05.537Z,96577.38
2023-01-17T13:14:32.961Z,96576.75
2023-01-17T13:17:24.584Z,96584.44
2023-01-17T13:20:01.730Z,96587.53
2023-01-17T13:22:30.235Z,96586.72
2023-01-17T13:25:00.366Z,96586.25
2023-01-17T13:27:38.954Z,96578.81
2023-01-17T13:30:43.514Z,96574.81
2023-01-17T13:33:22.714Z,96565.94
2023-01-17T13:36:05.200Z,96570.22
2023-01-17T13:38:55.018Z,96564.47
2023-01-17T13:41:34.427Z,96556.94
2023-01-17T13:44:25.499Z,96561.94
2023-01-17T13:47:17.087Z,96558.84
2023-01-17T13:49:56.280Z,96553.00
2023-01-17T13:52:26.291Z,96549.13
2023-01-17T13:54:58.056Z,96550.13
2023-01-17T13:57:30.231Z,96532.66
2023-01-17T14:00:21.290Z,96521.91
2023-01-17T14:02:49.983Z,96515.84
2023-01-17T14:05:22.932Z,96514.78
2023-01-17T14:07:53.354Z,96497.25
2023-01-17T14:10:34.478Z,96484.56
2023-01-17T14:13:02.154Z,96484.84
2023-01-17T14:15:31.641Z,96476.81
2023-01-17T14:18:00.200Z,96471.09
2023-01-17T14:20:27.500Z,96467.06
2023-01-17T14:23:01.516Z,96472.94
2023-01-17T14:25:30.410Z,96466.81
2023-01-17T14:28:01.635Z,96451.38
2023-01-17T14:30:34.780Z,96449.75
2023-01-17T14:33:01.838Z,96457.06
2023-01-17T14:35:37.103Z,96444.41
2023-01-17T14:38:18.992Z,96441.66
2023-01-17T14:40:55.457Z,96440.84
2023-01-17T14:43:24.101Z,96441.34
2023-01-17T14:46:07.119Z,96428.81
2023-01-17T14:48:39.819Z,96425.59
2023-01-17T14:51:28.261Z,96413.22
2023-01-17T14:53:56.658Z,96417.47
2023-01-17T14:56:25.948Z,96415.19
2023-01-17T14:59:22.749Z,96420.09
2023-01-17T15:02:07.043Z,96416.38
2023-01-17T15:04:39.483Z,96420.72
2023-01-17T15:07:14.424Z,96418.13
2023-01-17T15:09:44.524Z,96417.50
2023-01-17T15:12:14.430Z,96425.75
2023-01-17T15:14:45.884Z,96418.47
2023-01-17T15:17:20.995Z,96421.22
2023-01-17T15:19:50.231Z,96415.25
2023-01-17T15:22:19.044Z,96408.75
2023-01-17T15:24:46.535Z,96406.66
2023-01-17T15:27:17.690Z,96402.59
2023-01-17T15:29:47.153Z,96396.75
2023-01-17T15:32:22.608Z,96396.09
2023-01-17T15:34:51.075Z,96393.78
2023-01-17T15:37:28.783Z,96398.00
2023-01-17T15:40:14.770Z,96385.97
2023-01-17T15:42:43.525Z,96397.38
2023-01-17T15:45:15.627Z,96388.28
2023-01-17T15:47:43.089Z,96381.56
2023-01-17T15:50:27.893Z,96377.22
2023-01-17T15:53:02.308Z,96370.09
2023-01-17T15:55:33.034Z,96369.94
2023-01-17T15:58:00.752Z,96361.44
2023-01-17T16:00:37.819Z,96361.97
2023-01-17T16:03:20.225Z,96355.47
2023-01-17T16:05:47.871Z,96352.84
2023-01-17T16:08:16.268Z,96356.75
2023-01-17T16:10:43.925Z,96355.13
2023-01-17T16:13:12.942Z,96357.72
2023-01-17T16:15:42.783Z,96358.41
2023-01-17T16:18:15.406Z,96354.44
2023-01-17T16:20:58.198Z,96357.47
2023-01-17T16:23:25.552Z,96347.28
2023-01-17T16:25:53.993Z,96343.91
2023-01-17T16:28:21.144Z,96340.50
2023-01-17T16:30:48.893Z,96339.00
2023-01-17T16:33:16.346Z,96332.69
2023-01-17T16:35:43.378Z,96332.00
2023-01-17T16:38:12.497Z,96327.87
2023-01-17T16:40:41.875Z,96320.72
2023-01-17T16:43:11.470Z,96305.59
2023-01-17T16:45:52.078Z,96306.91
2023-01-17T16:48:20.316Z,96300.22
2023-01-17T16:50:50.735Z,96295.44
2023-01-17T16:53:24.290Z,96285.59
2023-01-17T16:55:52.766Z,96297.63
2023-01-17T16:58:20.459Z,96290.00
2023-01-17T17:00:47.784Z,96295.34
2023-01-17T17:03:19.803Z,96287.91
2023-01-17T17:05:55.264Z,96292.00
2023-01-17T17:08:24.051Z,96283.88
2023-01-17T17:10:51.491Z,96289.06
2023-01-17T17:13:18.664Z,96273.81
2023-01-17T17:15:46.281Z,96275.13
2023-01-17T17:18:18.009Z,96264.59
2023-01-17T17:20:45.444Z,96258.28
2023-01-17T17:23:12.594Z,96263.12
2023-01-17T17:25:40.078Z,96261.50
2023-01-17T17:28:07.474Z,96252.75
2023-01-17T17:30:36.099Z,96248.69
2023-01-17T17:33:04.631Z,96239.28
2023-01-17T17:35:35.158Z,96239.59
2023-01-17T17:38:02.238Z,96235.75
2023-01-17T17:40:29.490Z,96236.75
2023-01-17T17:42:56.855Z,96232.19
2023-01-17T17:45:23.960Z,96223.53
2023-01-17T17:47:51.225Z,96223.53
2023-01-17T17:50:18.815Z,96204.28
2023-01-17T17:52:48.173Z,96192.25
2023-01-17T17:55:19.011Z,96180.75
2023-01-17T17:57:46.571Z,96179.78
2023-01-17T18:00:14.817Z,96160.81
2023-01-17T18:02:42.515Z,96157.41
2023-01-17T18:05:09.921Z,96143.97
2023-01-17T18:07:37.092Z,96140.56
2023-01-17T18:10:05.012Z,96134.72
2023-01-17T18:12:32.150Z,96127.44
2023-01-17T18:14:59.252Z,96125.00
2023-01-17T18:17:26.658Z,96126.31
2023-01-17T18:19:53.743Z,96109.31
2023-01-17T18:22:20.827Z,96104.81
2023-01-17T18:24:48.184Z,96103.50
2023-01-17T18:27:15.319Z,96096.19
2023-01-17T18:29:42.333Z,96102.72
2023-01-17T18:32:09.685Z,96095.59
2023-01-17T18:34:41.399Z,96095.09
2023-01-17T18:37:08.715Z,96085.69
2023-01-17T18:39:36.015Z,96078.38
2023-01-17T18:42:03.036Z,96074.19
2023-01-17T18:44:30.195Z,96066.28
2023-01-17T18:47:04.475Z,96054.50
2023-01-17T18:49:33.020Z,96051.69
2023-01-17T18:52:00.337Z,96042.44
2023-01-17T18:54:28.283Z,96047.47
2023-01-17T18:56:56.036Z,96045.87
2023-01-17T18:59:23.560Z,96036.13
2023-01-17T19:01:50.727Z,96026.75
2023-01-17T19:04:18.229Z,96014.78
2023-01-17T19:06:47.596Z,96017.69
2023-01-17T19:09:15.895Z,96008.16
2023-01-17T19:11:44.867Z,96002.94
2023-01-17T19:14:12.750Z,96003.59
2023-01-17T19:16:41.468Z,96005.09
2023-01-17T19:19:12.262Z,95986.63
2023-01-17T19:21:39.843Z,95983.13
2023-01-17T19:24:07.508Z,95973.72
2023-01-17T19:26:34.540Z,95958.22
2023-01-17T19:29:05.132Z,95939.63
2023-01-17T19:31:35.783Z,95934.59
2023-01-17T19:34:06.246Z,95918.28
2023-01-17T19:36:35.022Z,95926.66
2023-01-17T19:39:05.938Z,95912.59
2023-01-17T19:41:35.527Z,95892.03
2023-01-17T19:44:07.208Z,95889.44
2023-01-17T19:46:35.295Z,95881.69
2023-01-17T19:49:04.124Z,95864.50
2023-01-17T19:51:31.249Z,95870.00
2023-01-17T19:54:01.857Z,95859.31
2023-01-17T19:56:30.099Z,95844.34
2023-01-17T19:59:00.851Z,95847.97
2023-01-17T20:01:31.044Z,95843.59
2023-01-17T20:03:59.662Z,95846.87
2023-01-17T20:06:29.750Z,95839.84
2023-01-17T20:08:56.772Z,95847.00
2023-01-17T20:11:25.310Z,95847.00
2023-01-17T20:13:54.624Z,95853.19
2023-01-17T20:16:22.908Z,95849.69
2023-01-17T20:18:50.809Z,95834.81
2023-01-17T20:21:20.257Z,95867.00
2023-01-17T20:23:48.088Z,95850.47
2023-01-17T20:26:20.521Z,95866.62
2023-01-17T20:28:49.478Z,95860.16
2023-01-17T20:31:19.333Z,95862.41
2023-01-17T20:33:47.370Z,95859.53
2023-01-17T20:36:15.998Z,95844.31
2023-01-17T20:38:43.926Z,95844.31
2023-01-17T20:41:11.756Z,95849.16
2023-01-17T20:43:38.918Z,95828.56
2023-01-17T20:46:06.892Z,95822.56
2023-01-17T20:48:34.111Z,95819.69
2023-01-17T20:51:05.988Z,95806.31
2023-01-17T20:53:34.971Z,95807.41
2023-01-17T20:56:02.092Z,95818.94
2023-01-17T20:58:30.672Z,95785.25
2023-01-17T21:00:58.864Z,95789.13
2023-01-17T21:03:29.317Z,95789.91
2023-01-17T21:06:04.747Z,95790.84
2023-01-17T21:08:34.103Z,95778.53
2023-01-17T21:11:01.831Z,95771.63
2023-01-17T21:13:28.942Z,95775.84
2023-01-17T21:15:56.326Z,95769.72
2023-01-17T21:18:27.290Z,95781.88
2023-01-17T21:20:54.342Z,95758.97
2023-01-17T21:23:23.507Z,95753.13
2023-01-17T21:25:55.678Z,95751.22
2023-01-17T21:28:25.613Z,95750.25
2023-01-17T21:30:53.371Z,95738.13
2023-01-17T21:33:21.569Z,95727.81
2023-01-17T21:35:48.993Z,95735.66
2023-01-17T21:38:16.275Z,95725.31
2023-01-17T21:40:44.021Z,95728.72
2023-01-17T21:43:11.727Z,95726.34
2023-01-17T21:45:39.561Z,95731.81
2023-01-17T21:48:07.406Z,95723.09
2023-01-17T21:50:34.777Z,95731.09
2023-01-17T21:53:02.950Z,95722.88
2023-01-17T21:55:48.628Z,95711.94
2023-01-17T21:58:35.738Z,95725.19
2023-01-17T22:01:18.942Z,95729.12
2023-01-17T22:03:51.640Z,95722.41
2023-01-17T22:06:19.943Z,95714.25
2023-01-17T22:08:47.490Z,95715.75
2023-01-17T22:11:16.962Z,95705.31
2023-01-17T22:13:44.758Z,95698.72
2023-01-17T22:16:17.742Z,95699.75
2023-01-17T22:18:45.615Z,95697.03
2023-01-17T22:21:16.967Z,95697.16
2023-01-17T22:23:52.211Z,95689.91
2023-01-17T22:26:21.353Z,95688.28
2023-01-17T22:28:48.690Z,95702.84
2023-01-17T22:31:23.804Z,95714.81
2023-01-17T22:33:56.186Z,95712.13
2023-01-17T22:36:23.851Z,95718.06
2023-01-17T22:38:51.449Z,95731.97
2023-01-17T22:41:21.598Z,95755.37
2023-01-17T22:43:53.125Z,95754.22
2023-01-17T22:46:23.350Z,95748.00
2023-01-17T22:48:52.171Z,95745.94
2023-01-17T22:51:20.718Z,95738.78
2023-01-17T22:53:50.370Z,95733.59
2023-01-17T22:56:20.198Z,95736.00
2023-01-17T22:58:49.020Z,95737.56
2023-01-17T23:01:18.876Z,95750.94
2023-01-17T23:03:46.673Z,95762.16
2023-01-17T23:06:16.716Z,95775.97
2023-01-17T23:08:45.944Z,95796.38
2023-01-17T23:11:43.637Z,95780.03
2023-01-17T23:14:19.818Z,95785.66
2023-01-17T23:17:14.238Z,95779.06
2023-01-17T23:19:42.350Z,95791.16
2023-01-17T23:22:20.880Z,95788.22
2023-01-17T23:24:51.899Z,95788.84
2023-01-17T23:27:41.966Z,95799.50
2023-01-17T23:30:14.469Z,95799.09
2023-01-17T23:32:53.036Z,95795.59
2023-01-17T23:35:22.218Z,95787.09
2023-01-17T23:38:08.386Z,95788.19
2023-01-17T23:40:36.831Z,95780.41
2023-01-17T23:43:23.085Z,95773.41
2023-01-17T23:45:54.397Z,95777.31
2023-01-17T23:48:24.655Z,95791.00
2023-01-17T23:50:52.135Z,95792.03
2023-01-17T23:53:23.610Z,95799.28
2023-01-17T23:55:52.832Z,95810.47
2023-01-17T23:58:21.683Z,95819.69
